Latest Weather Observations for Eucla

IDW60801

Issued at 11:05 pm WST Wednesday 22 October 2014 (issued every 30 minutes, with the page automatically refreshed every 10 minutes)

About weather observations | Map of weather stations | Latest weather observations for WA | Other Formats
Station Details ID: 011003 Name: EUCLA Lat: -31.68 Lon: 128.90 Height: 93.1 m
Data from the previous 72 hours. | See also: Recent months at Eucla
Date/Time
WST
Temp
°C
App
Temp
°C
Dew
Point
Rel
Hum
%
Delta-T
°C
Wind Press
QNH
hPa
Press
MSL
hPa
Rain
since 9 am
mm
Dir
 
Spd
km/h
Gust
km/h
Spd
kts
Gust
kts
22/11:00pm 15.3 13.0 13.0 86 1.3 E 17 28 9 15 1019.9 1019.7 0.0
22/10:30pm 15.1 12.3 12.6 85 1.4 ESE 19 30 10 16 1020.3 1020.1 0.0
22/10:00pm 15.2 12.2 12.7 85 1.4 ESE 20 30 11 16 1020.3 1020.1 0.0
22/09:30pm 15.4 13.1 12.9 85 1.4 E 17 28 9 15 1020.6 1020.4 0.0
22/09:00pm 15.5 13.5 12.8 84 1.5 ESE 15 28 8 15 1021.0 1020.8 0.0
22/08:30pm 15.7 13.3 12.8 83 1.6 ESE 17 30 9 16 1021.3 1021.1 0.0
22/08:00pm 15.7 13.6 12.5 81 1.8 ESE 15 30 8 16 1021.5 1021.3 0.0
22/07:30pm 15.8 13.8 12.7 82 1.7 ESE 15 22 8 12 1021.4 1021.2 0.0
22/07:00pm 15.7 13.2 12.3 80 1.9 ESE 17 26 9 14 1021.4 1021.2 0.0
22/06:30pm 15.9 13.5 12.5 80 1.9 ESE 17 22 9 12 1021.3 1021.1 0.0
22/06:00pm 16.1 14.1 12.7 80 1.9 ESE 15 22 8 12 1021.3 1021.1 0.0
22/05:30pm 16.3 13.9 12.5 78 2.1 ESE 17 28 9 15 1021.3 1021.1 0.0
22/05:00pm 16.4 14.3 12.4 77 2.2 ESE 15 24 8 13 1021.4 1021.2 0.0
22/04:30pm 16.8 14.4 12.7 77 2.3 SE 17 26 9 14 1021.5 1021.3 0.0
22/04:00pm 17.2 14.8 12.5 74 2.6 SE 17 26 9 14 1021.7 1021.5 0.0
22/03:30pm 17.5 15.2 13.0 75 2.5 SE 17 28 9 15 1021.5 1021.3 0.0
22/03:00pm 17.8 15.5 13.1 74 2.6 SE 17 24 9 13 1021.8 1021.6 0.0
22/02:30pm 18.4 16.1 13.0 71 3.0 SE 17 24 9 13 1021.8 1021.6 0.0
22/02:00pm 18.4 15.9 12.4 68 3.3 SE 17 26 9 14 1021.8 1021.6 0.0
22/01:30pm 19.3 16.5 12.6 65 3.8 SE 19 30 10 16 1022.1 1021.9 0.0
22/01:00pm 19.1 17.1 12.8 67 3.5 SE 15 24 8 13 1022.4 1022.2 0.0
22/12:30pm 19.4 17.4 12.7 65 3.8 SE 15 24 8 13 1022.8 1022.6 0.0
22/12:00pm 18.9 16.9 12.6 67 3.5 ESE 15 22 8 12 1023.2 1023.0 0.0
22/11:30am 18.9 16.8 12.4 66 3.6 SE 15 24 8 13 1023.3 1023.1 0.0
22/11:00am 18.2 16.5 12.6 70 3.1 SE 13 19 7 10 1023.8 1023.6 0.0
22/10:30am 18.2 16.6 12.9 71 3.0 SE 13 19 7 10 1024.1 1023.9 0.0
22/10:00am 18.2 15.9 13.1 72 2.9 SE 17 24 9 13 1024.1 1023.9 0.0
22/09:30am 17.6 15.8 13.3 76 2.4 SE 15 20 8 11 1024.2 1024.0 0.0
22/09:00am 17.1 15.1 12.8 76 2.4 SE 15 20 8 11 1024.2 1024.0 0.0
22/08:30am 17.1 15.1 12.8 76 2.4 ESE 15 24 8 13 1024.2 1024.0 0.0
22/08:00am 17.0 15.3 13.5 80 2.0 SE 15 20 8 11 1024.2 1024.0 0.0
22/07:30am 16.8 15.2 12.9 78 2.2 SE 13 19 7 10 1024.1 1023.9 0.0
22/07:00am 16.6 15.2 13.3 81 1.8 SE 13 19 7 10 1024.0 1023.8 0.0
22/06:30am 16.3 14.9 13.4 83 1.6 SE 13 19 7 10 1023.9 1023.7 0.0
22/06:00am 16.0 14.5 13.1 83 1.6 SSE 13 22 7 12 1023.5 1023.3 0.0
22/05:30am 15.6 14.3 13.8 89 1.0 SSE 13 20 7 11 1023.3 1023.1 0.0
22/05:00am 15.1 13.8 13.6 91 0.8 S 13 20 7 11 1022.9 1022.7 0.0
22/04:30am 15.2 14.0 13.9 92 0.7 SSE 13 17 7 9 1022.6 1022.4 0.0
22/04:00am 14.9 13.6 13.6 92 0.7 SSE 13 20 7 11 1022.5 1022.3 0.0
22/03:30am 14.9 13.7 13.9 94 0.6 S 13 19 7 10 1022.3 1022.1 0.0
22/03:00am 15.0 14.3 14.2 95 0.5 SSE 11 17 6 9 1022.2 1022.0 0.0
22/02:30am 14.9 13.8 14.3 96 0.3 SSE 13 19 7 10 1022.0 1021.8 0.0
22/02:00am 14.6 13.8 14.1 97 0.3 S 11 17 6 9 1021.9 1021.7 0.0
22/01:30am 13.6 12.8 13.0 96 0.3 S 9 13 5 7 1021.7 1021.5 0.0
22/01:00am 13.9 13.6 13.3 96 0.3 SSW 7 11 4 6 1021.8 1021.6 0.0
22/12:30am 13.9 13.2 13.1 95 0.4 S 9 13 5 7 1021.8 1021.6 0.0
22/12:00am 14.2 13.9 13.4 95 0.4 SSW 7 11 4 6 1021.9 1021.7 0.0
 
Date/Time
WST
Temp
°C
App
Temp
°C
Dew
Point
Rel
Hum
%
Delta-T
°C
Wind Press
QNH
hPa
Press
MSL
hPa
Rain
since 9 am
mm
Dir
 
Spd
km/h
Gust
km/h
Spd
kts
Gust
kts
21/11:30pm 14.5 14.0 13.7 95 0.4 S 9 11 5 6 1022.1 1021.9 0.0
21/11:00pm 14.7 14.5 13.7 94 0.6 S 7 9 4 5 1022.4 1022.2 0.0
21/10:30pm 14.9 14.4 13.9 94 0.6 S 9 13 5 7 1022.7 1022.5 0.0
21/10:00pm 15.1 14.7 14.0 93 0.6 SSE 9 11 5 6 1022.9 1022.7 0.0
21/09:30pm 15.3 14.9 14.2 93 0.6 SSE 9 13 5 7 1023.1 1022.9 0.0
21/09:00pm 15.5 14.8 14.2 92 0.7 SSE 11 17 6 9 1023.3 1023.1 0.0
21/08:30pm 15.7 15.5 14.6 93 0.6 SSE 9 13 5 7 1023.3 1023.1 0.0
21/08:00pm 16.0 15.5 14.9 93 0.6 SSE 11 17 6 9 1023.4 1023.2 0.0
21/07:30pm 16.5 15.8 15.4 93 0.6 SSE 13 20 7 11 1023.1 1022.9 0.0
21/07:00pm 16.9 16.4 15.8 93 0.6 SSE 13 19 7 10 1022.8 1022.6 0.0
21/06:30pm 16.7 16.1 15.7 94 0.6 S 13 17 7 9 1022.4 1022.2 0.0
21/06:00pm 17.1 16.6 15.8 92 0.8 SSE 13 19 7 10 1022.0 1021.8 0.0
21/05:30pm 17.5 16.9 15.7 89 1.1 SSE 13 20 7 11 1021.6 1021.4 0.0
21/05:00pm 18.3 17.3 15.6 84 1.6 SSE 15 19 8 10 1021.2 1021.0 0.0
21/04:30pm 19.3 17.9 15.6 79 2.2 SSE 17 26 9 14 1020.7 1020.5 0.0
21/04:00pm 19.9 18.4 15.3 75 2.7 SSE 17 24 9 13 1020.5 1020.3 0.0
21/03:30pm 20.2 18.3 15.2 73 3.0 SSE 19 30 10 16 1020.3 1020.1 0.0
21/03:00pm 20.5 18.6 15.1 71 3.2 SSE 19 33 10 18 1020.0 1019.8 0.0
21/02:30pm 21.3 18.9 15.4 69 3.5 SSE 22 35 12 19 1019.8 1019.6 0.0
21/02:00pm 21.6 19.0 15.0 66 3.9 S 22 33 12 18 1020.0 1019.8 0.0
21/01:30pm 22.0 19.1 15.1 65 4.1 S 24 33 13 18 1019.9 1019.7 0.0
21/01:00pm 23.7 21.0 14.7 57 5.3 S 22 35 12 19 1019.8 1019.6 0.0
21/12:30pm 23.4 20.3 13.3 53 5.9 S 22 33 12 18 1019.8 1019.6 0.0
21/12:00pm 23.7 21.0 14.7 57 5.3 S 22 32 12 17 1019.7 1019.5 0.0
21/11:30am 23.8 21.1 13.6 52 6.0 S 20 35 11 19 1019.5 1019.3 0.0
21/11:00am 24.7 21.7 12.6 47 7.0 SSW 20 30 11 16 1019.4 1019.2 0.0
21/10:30am 24.4 22.2 14.5 54 5.9 SSW 19 28 10 15 1019.5 1019.3 0.0
21/10:00am 23.6 21.8 15.4 60 4.9 SSW 19 28 10 15 1019.5 1019.3 0.0
21/09:30am 22.5 20.5 15.4 64 4.3 S 20 30 11 16 1019.6 1019.4 0.0
21/09:00am 21.9 20.2 15.7 68 3.7 SSW 19 28 10 15 1019.6 1019.4 8.8
21/08:30am 21.8 20.7 16.3 71 3.3 SSW 17 26 9 14 1019.3 1019.1 8.8
21/08:00am 21.2 19.9 15.7 71 3.3 SSW 17 24 9 13 1019.1 1018.9 8.8
21/07:30am 20.2 19.7 16.8 81 2.1 SW 15 22 8 12 1018.6 1018.5 8.8
21/07:00am 18.8 18.1 15.5 81 1.9 SW 13 19 7 10 1018.3 1018.2 8.8
21/06:30am 18.8 17.9 15.9 83 1.7 SSW 15 22 8 12 1018.1 1018.0 8.8
21/06:00am 17.9 18.6 15.7 87 1.3 N 6 7 3 4 1017.3 1017.2 8.8
21/05:30am 15.1 16.3 13.8 92 0.7 CALM 0 0 0 0 1017.3 1017.2 8.8
21/05:00am 15.5 15.2 14.5 94 0.6 WSW 9 13 5 7 1017.1 1017.0 8.8
21/04:30am 15.1 14.7 14.1 94 0.6 W 9 11 5 6 1016.8 1016.7 8.4
21/04:00am 14.4 15.5 13.4 94 0.6 CALM 0 0 0 0 1016.4 1016.3 8.4
21/03:30am 15.0 14.6 14.0 94 0.6 WSW 9 13 5 7 1016.0 1015.9 8.4
21/03:00am 15.1 15.0 13.8 92 0.7 S 7 9 4 5 1015.8 1015.7 8.4
21/02:30am 15.7 15.4 14.4 92 0.7 S 9 11 5 6 1015.6 1015.5 8.4
21/02:00am 15.9 15.8 14.9 94 0.6 S 9 13 5 7 1015.5 1015.4 8.4
21/01:30am 15.8 15.6 14.7 93 0.6 S 9 11 5 6 1015.5 1015.4 8.4
21/01:00am 15.9 15.4 14.8 93 0.6 S 11 13 6 7 1015.6 1015.5 8.4
21/12:30am 15.9 14.8 14.4 91 0.9 SSW 13 15 7 8 1015.5 1015.4 8.4
21/12:00am 16.5 15.5 14.7 89 1.0 S 13 17 7 9 1015.1 1014.9 8.4
 
Date/Time
WST
Temp
°C
App
Temp
°C
Dew
Point
Rel
Hum
%
Delta-T
°C
Wind Press
QNH
hPa
Press
MSL
hPa
Rain
since 9 am
mm
Dir
 
Spd
km/h
Gust
km/h
Spd
kts
Gust
kts
20/11:30pm 16.4 16.7 15.1 92 0.8 SSW 7 15 4 8 1015.3 1015.2 8.4
20/11:00pm 16.9 17.2 14.5 86 1.4 NW 6 7 3 4 1015.5 1015.4 8.4
20/10:30pm 17.2 16.2 14.7 85 1.4 NE 13 17 7 9 1015.4 1015.3 8.4
20/10:00pm 18.1 17.8 14.4 79 2.1 WNW 9 13 5 7 1015.0 1014.8 8.4
20/09:30pm 17.5 17.5 15.3 87 1.3 WSW 9 11 5 6 1015.1 1014.9 8.4
20/09:00pm 18.5 18.3 15.7 84 1.7 WSW 11 11 6 6 1015.2 1015.1 8.4
20/08:30pm 18.6 18.8 15.7 83 1.7 NW 9 11 5 6 1015.6 1015.5 8.4
20/08:00pm 18.4 18.5 16.4 88 1.2 N 11 13 6 7 1015.4 1015.3 8.4
20/07:30pm 20.1 19.7 16.3 79 2.3 N 13 19 7 10 1015.4 1015.3 8.4
20/07:10pm 20.0 15.9 16.4 80 2.2 NW 33 69 18 37 1016.5 1016.4 7.0
20/07:00pm 19.5 20.3 17.3 87 1.3 E 9 13 5 7 1014.6 1014.4 4.6
20/06:30pm 19.0 20.3 17.0 88 1.2 NW 6 17 3 9 1014.2 1014.0 4.6
20/06:16pm 19.9 20.1 15.7 77 2.5 S 9 15 5 8 1014.8 1014.6 2.4
20/06:00pm 25.0 24.8 12.9 47 7.0 NNE 6 19 3 10 1014.0 1013.8 2.0
20/05:30pm 26.6 25.6 11.1 38 8.8 E 7 11 4 6 1013.1 1012.9 2.0
20/05:00pm 26.9 26.4 12.2 40 8.5 SW 6 11 3 6 1012.8 1012.6 2.0
20/04:30pm 30.8 28.0 8.5 25 12.4 NNW 13 22 7 12 1012.7 1012.5 2.0
20/04:00pm 32.0 28.0 8.3 23 13.2 NNW 19 28 10 15 1012.6 1012.4 2.0
20/03:30pm 32.5 29.1 9.3 24 13.2 N 17 26 9 14 1012.4 1012.2 2.0
20/03:00pm 31.8 28.4 10.5 27 12.3 NNW 19 26 10 14 1012.1 1011.9 2.0
20/02:30pm 31.8 29.1 10.5 27 12.3 NNW 15 26 8 14 1012.4 1012.2 2.0
20/02:00pm 31.3 28.4 11.1 29 11.7 NNW 17 26 9 14 1012.8 1012.6 2.0
20/01:30pm 29.5 26.6 11.1 32 10.6 N 17 26 9 14 1013.2 1013.0 2.0
20/01:00pm 30.3 28.5 12.2 33 10.7 N 13 19 7 10 1013.3 1013.1 2.0
20/12:30pm 29.3 27.8 11.8 34 10.2 N 11 19 6 10 1013.6 1013.4 2.0
20/12:00pm 28.9 28.1 12.8 37 9.5 NW 9 15 5 8 1014.0 1013.8 2.0
20/11:30am 26.1 27.4 18.5 63 4.9 WNW 9 11 5 6 1014.2 1014.0 2.0
20/11:00am 22.5 22.8 17.0 71 3.4 NW 11 15 6 8 1014.8 1014.6 1.8
20/10:30am 18.9 19.5 16.9 88 1.2 N 9 11 5 6 1015.8 1015.7 1.8
20/10:00am 17.3 15.9 15.6 90 1.0 NW 17 24 9 13 1017.6 1017.5 1.8
20/09:57am 17.3 15.5 15.6 90 1.0 NW 19 24 10 13 1017.9 1017.8 1.8
20/09:30am 17.7 13.8 15.5 87 1.3 N 30 52 16 28 1020.0 1019.8 0.6
20/09:26am 17.7 14.1 15.3 86 1.4 N 28 52 15 28 1019.4 1019.2 0.2
20/09:21am 17.5 15.1 15.3 87 1.3 N 22 32 12 17 1018.5 1018.4 0.2
20/09:00am 18.0 16.0 14.9 82 1.8 NE 19 30 10 16 1016.3 1016.2 0.0
20/08:30am 17.6 17.1 15.0 85 1.5 ESE 11 15 6 8 1015.5 1015.4 0.0
20/08:00am 17.1 16.9 15.6 91 0.9 S 11 30 6 16 1014.9 1014.7 0.0
20/07:54am 16.7 15.2 15.4 92 0.8 SSE 17 30 9 16 1014.9 1014.7 0.0
20/07:48am 16.5 14.9 14.9 90 0.9 ESE 17 33 9 18 1012.8 1012.6 0.0
20/07:30am 16.6 16.1 14.8 89 1.0 SE 11 19 6 10 1015.2 1015.1 0.0
20/07:00am 16.6 15.7 14.8 89 1.0 SE 13 20 7 11 1016.1 1016.0 0.0
20/06:30am 16.7 16.2 14.9 89 1.0 S 11 15 6 8 1016.4 1016.3 0.0
20/06:00am 16.0 15.8 14.7 92 0.7 SW 9 11 5 6 1017.2 1017.1 0.0
20/05:30am 15.8 15.6 14.7 93 0.6 W 9 15 5 8 1017.6 1017.5 0.0
20/05:00am 15.1 14.3 14.0 93 0.6 WSW 11 15 6 8 1017.9 1017.8 0.0
20/04:30am 15.6 15.0 14.5 93 0.6 SW 11 15 6 8 1016.2 1016.1 0.0
20/04:00am 15.8 15.2 14.5 92 0.7 S 11 15 6 8 1015.6 1015.5 0.0
20/03:30am 15.8 14.1 14.7 93 0.6 SSE 17 26 9 14 1014.8 1014.6 0.0
20/03:00am 15.8 13.9 14.3 91 0.9 S 17 24 9 13 1014.9 1014.7 0.0
20/02:30am 15.9 14.1 14.4 91 0.9 S 17 24 9 13 1015.2 1015.1 0.0
20/02:00am 16.2 13.9 14.6 90 0.9 SW 20 28 11 15 1015.9 1015.8 0.0
20/01:30am 16.4 14.2 14.9 91 0.9 WSW 20 32 11 17 1016.3 1016.2 0.0
20/01:00am 16.2 14.9 14.9 92 0.8 S 15 22 8 12 1014.8 1014.6 0.0
20/12:30am 16.3 15.1 15.0 92 0.8 SSE 15 20 8 11 1014.3 1014.1 0.0
20/12:00am 16.3 15.5 15.0 92 0.8 SE 13 20 7 11 1014.5 1014.3 0.0
 
Date/Time
WST
Temp
°C
App
Temp
°C
Dew
Point
Rel
Hum
%
Delta-T
°C
Wind Press
QNH
hPa
Press
MSL
hPa
Rain
since 9 am
mm
Dir
 
Spd
km/h
Gust
km/h
Spd
kts
Gust
kts
19/11:30pm 16.3 15.0 14.8 91 0.9 ESE 15 26 8 14 1015.0 1014.8 0.0

Other Formats:

Comma delimited format used in spreadsheet applications
http://www.bom.gov.au/fwo/IDW60801/IDW60801.94647.axf

JavaScript Object Notation format (JSON) in row-major order
http://www.bom.gov.au/fwo/IDW60801/IDW60801.94647.json